Time;durP1;ratioP1;P1;durP2;ratioP2;P2;SDS_P1;SDS_P2;PMS_P1;PMS_P2;Temp;Humidity;BMP_temperature;BMP_pressure;BME280_temperature;BME280_humidity;BME280_pressure;Samples;Min_cycle;Max_cycle;Signal;HPM_P1;HPM_P2
2023/03/01 00:00:54;;;;;;;8.90;5.20;;;;;;;17.22;44.57;101115.97;5108259;28;20427;-60
2023/03/01 00:03:20;;;;;;;8.37;4.80;;;;;;;17.14;44.70;101114.03;5085710;28;21725;-60
2023/03/01 00:05:46;;;;;;;10.27;4.70;;;;;;;17.13;44.83;101123.78;5103189;28;20309;-60
2023/03/01 00:08:11;;;;;;;8.07;4.20;;;;;;;17.26;44.44;101122.63;5105704;28;20221;-59
2023/03/01 00:10:37;;;;;;;6.90;4.77;;;;;;;17.54;44.88;101115.09;5105537;28;20447;-60
2023/03/01 00:13:04;;;;;;;6.43;4.33;;;;;;;17.55;44.92;101118.81;5090364;28;20182;-60
2023/03/01 00:15:31;;;;;;;13.70;4.83;;;;;;;17.54;44.91;101117.97;5074754;28;20263;-59
2023/03/01 00:17:56;;;;;;;7.67;4.27;;;;;;;17.53;44.82;101121.16;5112868;27;20992;-60
2023/03/01 00:20:22;;;;;;;6.90;4.70;;;;;;;17.31;45.26;101125.25;5106019;28;20534;-59
2023/03/01 00:22:47;;;;;;;6.43;4.70;;;;;;;17.21;45.29;101125.69;5098065;28;20190;-59
2023/03/01 00:25:13;;;;;;;8.40;4.73;;;;;;;17.14;45.56;101119.75;5109439;28;20227;-60
2023/03/01 00:27:38;;;;;;;8.67;4.80;;;;;;;17.10;45.46;101118.75;5109837;28;20178;-59
2023/03/01 00:30:04;;;;;;;7.60;4.40;;;;;;;17.13;45.79;101111.53;5109522;28;20177;-60
2023/03/01 00:32:30;;;;;;;6.30;4.50;;;;;;;17.02;46.30;101116.00;5109799;28;20181;-60
2023/03/01 00:34:56;;;;;;;7.10;4.57;;;;;;;16.99;46.37;101116.69;5108368;28;20466;-60
2023/03/01 00:37:21;;;;;;;9.13;4.80;;;;;;;16.97;46.45;101111.38;5108790;28;20154;-60
2023/03/01 00:39:47;;;;;;;8.30;4.57;;;;;;;16.98;46.44;101112.19;5109616;28;20258;-60
2023/03/01 00:42:13;;;;;;;9.30;4.37;;;;;;;16.99;46.45;101106.13;5109420;28;20246;-60
2023/03/01 00:44:38;;;;;;;7.13;4.10;;;;;;;16.94;46.95;101114.91;5110137;28;20207;-60
2023/03/01 00:47:04;;;;;;;9.47;4.13;;;;;;;16.93;46.68;101113.25;5107226;28;20587;-60
2023/03/01 00:49:29;;;;;;;6.20;4.20;;;;;;;16.92;47.03;101110.75;5109686;28;20592;-60
2023/03/01 00:51:54;;;;;;;8.00;4.50;;;;;;;16.93;46.89;101112.41;5108016;28;20193;-60
2023/03/01 00:54:20;;;;;;;10.97;4.33;;;;;;;16.92;46.85;101117.28;5108637;28;20208;-59
2023/03/01 00:56:45;;;;;;;6.30;4.10;;;;;;;16.91;47.24;101111.94;5103312;27;20186;-60
2023/03/01 00:59:11;;;;;;;8.07;4.20;;;;;;;17.00;46.81;101112.69;5101302;28;21845;-60
2023/03/01 01:01:36;;;;;;;7.17;4.87;;;;;;;17.12;46.78;101109.88;5105954;28;20188;-60
2023/03/01 01:04:04;;;;;;;7.87;4.23;;;;;;;17.01;46.80;101109.47;5109950;27;20201;-60
2023/03/01 01:06:33;;;;;;;7.63;4.30;;;;;;;17.00;47.04;101107.78;5108252;28;20229;-60
2023/03/01 01:08:59;;;;;;;8.00;3.97;;;;;;;16.97;47.75;101099.97;5107238;28;20431;-60
2023/03/01 01:11:25;;;;;;;5.83;3.70;;;;;;;16.98;46.92;101097.91;5108365;27;20434;-60
2023/03/01 01:13:51;;;;;;;8.30;3.90;;;;;;;16.99;47.16;101091.88;5107686;27;20174;-61
2023/03/01 01:16:17;;;;;;;6.87;4.30;;;;;;;17.00;46.86;101090.69;5107218;28;20482;-60
2023/03/01 01:18:43;;;;;;;9.97;4.83;;;;;;;17.02;47.34;101093.19;5106025;28;20181;-60
2023/03/01 01:21:13;;;;;;;5.70;4.07;;;;;;;16.96;47.47;101088.91;5107594;28;20430;-60
2023/03/01 01:23:39;;;;;;;6.47;4.37;;;;;;;16.96;47.30;101091.75;5107603;28;20181;-60
2023/03/01 01:26:09;;;;;;;6.20;4.13;;;;;;;16.99;47.33;101086.16;5107544;28;20484;-60
2023/03/01 01:28:35;;;;;;;6.10;4.03;;;;;;;17.00;47.51;101096.38;5108078;28;20184;-60
2023/03/01 01:31:01;;;;;;;4.77;3.87;;;;;;;16.99;47.31;101088.19;5107981;28;21524;-60
2023/03/01 01:33:26;;;;;;;6.10;3.80;;;;;;;16.95;47.52;101088.06;5107023;28;20427;-61
2023/03/01 01:35:52;;;;;;;7.00;4.07;;;;;;;16.93;47.56;101078.19;5108638;28;21017;-59
2023/03/01 01:38:17;;;;;;;6.00;3.60;;;;;;;16.92;47.47;101077.38;5108951;28;20166;-60
2023/03/01 01:40:44;;;;;;;5.60;3.70;;;;;;;16.86;47.83;101072.22;5107759;28;20247;-60
2023/03/01 01:43:23;;;;;;;6.53;3.93;;;;;;;16.84;47.86;101069.72;5108993;28;20249;-60
2023/03/01 01:45:49;;;;;;;6.07;4.00;;;;;;;16.86;48.13;101073.03;5107992;28;20510;-60
2023/03/01 01:48:19;;;;;;;7.00;3.50;;;;;;;16.85;48.01;101070.56;5107725;28;20454;-60
2023/03/01 01:50:47;;;;;;;5.60;4.17;;;;;;;16.81;47.97;101078.16;5102088;28;20640;-60
2023/03/01 01:53:15;;;;;;;6.40;4.00;;;;;;;16.83;48.16;101073.75;5107244;28;20399;-60
2023/03/01 01:55:42;;;;;;;6.17;3.60;;;;;;;16.80;48.36;101068.75;5109110;28;20461;-60
2023/03/01 01:58:09;;;;;;;5.40;3.63;;;;;;;16.78;48.17;101070.28;5108364;28;20977;-60
2023/03/01 02:00:34;;;;;;;6.10;3.97;;;;;;;16.76;48.35;101073.47;5106404;28;20457;-60
2023/03/01 02:03:02;;;;;;;5.67;4.07;;;;;;;16.76;48.26;101062.06;5107341;28;20459;-59
2023/03/01 02:05:33;;;;;;;8.83;4.40;;;;;;;16.78;48.21;101073.97;5104710;28;20166;-59
2023/03/01 02:07:58;;;;;;;4.97;3.70;;;;;;;16.88;48.05;101058.44;5101526;28;20542;-59
2023/03/01 02:10:24;;;;;;;6.40;4.30;;;;;;;16.89;48.08;101065.81;5109295;28;20404;-59
2023/03/01 02:12:50;;;;;;;6.00;3.53;;;;;;;16.85;48.06;101048.56;5108877;28;20190;-59
2023/03/01 02:15:15;;;;;;;6.10;3.77;;;;;;;16.90;48.00;101065.44;5091484;28;20603;-59
2023/03/01 02:17:41;;;;;;;5.43;3.63;;;;;;;16.94;47.93;101051.31;5116457;28;20200;-60
2023/03/01 02:20:18;;;;;;;8.27;3.73;;;;;;;16.91;47.90;101046.34;5109254;28;20185;-59
2023/03/01 02:22:44;;;;;;;5.63;3.50;;;;;;;16.94;48.25;101043.59;5108930;28;20187;-60
2023/03/01 02:25:19;;;;;;;5.50;3.90;;;;;;;16.85;48.07;101042.84;5101951;28;20522;-60
2023/03/01 02:28:08;;;;;;;5.30;3.03;;;;;;;16.89;48.24;101043.81;5109032;28;20412;-59
2023/03/01 02:30:34;;;;;;;5.37;3.53;;;;;;;16.92;48.25;101043.13;5090432;28;20446;-59
2023/03/01 02:33:04;;;;;;;6.40;3.50;;;;;;;16.98;48.06;101040.88;5091088;28;20412;-59
2023/03/01 02:35:35;;;;;;;8.30;3.80;;;;;;;16.91;48.43;101038.59;5084208;28;20198;-59
2023/03/01 02:38:01;;;;;;;6.10;4.10;;;;;;;16.96;48.24;101035.53;5094479;28;20514;-60
2023/03/01 02:40:28;;;;;;;4.83;3.30;;;;;;;16.93;48.20;101038.25;5113062;28;20844;-59
2023/03/01 02:42:55;;;;;;;4.23;3.10;;;;;;;16.91;48.24;101026.38;5094255;28;20918;-60
2023/03/01 02:45:21;;;;;;;5.27;3.23;;;;;;;16.85;48.53;101024.94;5094008;28;20968;-59
2023/03/01 02:47:46;;;;;;;4.80;3.80;;;;;;;16.80;48.43;101017.41;5113126;28;20396;-59
2023/03/01 02:50:21;;;;;;;4.53;3.10;;;;;;;16.75;48.83;101025.38;5094612;28;20189;-60
2023/03/01 02:52:48;;;;;;;5.10;3.40;;;;;;;16.79;48.72;101027.16;5111943;28;20231;-59
2023/03/01 02:55:17;;;;;;;5.17;3.30;;;;;;;16.78;48.69;101019.81;5112823;28;20475;-60
2023/03/01 02:57:44;;;;;;;5.43;3.60;;;;;;;16.75;48.74;101008.28;5093730;28;20446;-60
2023/03/01 03:00:19;;;;;;;5.30;3.23;;;;;;;16.73;48.97;101014.31;5112359;28;21197;-60
2023/03/01 03:02:45;;;;;;;6.10;3.67;;;;;;;16.70;48.96;101009.31;5094760;28;20912;-60
2023/03/01 03:05:16;;;;;;;4.70;3.30;;;;;;;16.72;48.83;101006.97;5118435;27;20464;-59
2023/03/01 03:07:42;;;;;;;6.17;4.03;;;;;;;16.71;48.95;101008.13;5130170;27;20477;-59
2023/03/01 03:10:14;;;;;;;4.33;3.30;;;;;;;16.72;48.91;101008.97;5120898;27;20471;-59
2023/03/01 03:12:39;;;;;;;7.70;4.20;;;;;;;16.89;48.48;101003.91;5111328;28;20418;-60
2023/03/01 03:15:08;;;;;;;6.07;3.63;;;;;;;16.81;48.71;100998.31;5111540;28;20489;-60
2023/03/01 03:17:35;;;;;;;5.70;3.40;;;;;;;16.83;48.61;100998.78;5125486;27;20192;-60
2023/03/01 03:20:03;;;;;;;5.53;3.83;;;;;;;16.86;48.79;100995.22;5122395;27;20471;-59
2023/03/01 03:22:28;;;;;;;5.10;3.50;;;;;;;16.85;48.07;100990.72;5111649;28;20443;-59
2023/03/01 03:24:54;;;;;;;5.23;3.37;;;;;;;16.83;48.52;100985.34;5112408;28;20496;-59
2023/03/01 03:27:19;;;;;;;5.63;3.40;;;;;;;16.90;48.62;100993.34;5111685;28;20630;-60
2023/03/01 03:29:44;;;;;;;4.90;3.50;;;;;;;16.87;48.42;100992.03;5111408;28;20181;-60
2023/03/01 03:32:10;;;;;;;5.73;3.40;;;;;;;16.86;48.33;100987.47;5112475;28;20535;-59
2023/03/01 03:34:35;;;;;;;4.30;2.87;;;;;;;16.84;48.63;100987.03;5111735;28;20628;-60
2023/03/01 03:37:01;;;;;;;8.30;3.17;;;;;;;16.89;48.64;100974.53;5111474;28;20193;-59
2023/03/01 03:39:26;;;;;;;6.20;3.37;;;;;;;16.84;48.70;100975.63;5112078;28;20158;-59
2023/03/01 03:41:53;;;;;;;5.77;3.20;;;;;;;16.88;48.55;100985.13;5111310;28;20188;-60
2023/03/01 03:44:18;;;;;;;4.77;3.17;;;;;;;16.88;48.49;100976.56;5112208;28;20632;-60
2023/03/01 03:46:44;;;;;;;4.43;2.97;;;;;;;16.93;48.58;100976.34;5112052;28;20412;-60
2023/03/01 03:49:09;;;;;;;6.30;3.10;;;;;;;16.93;48.40;100976.34;5093219;28;20193;-59
2023/03/01 03:51:35;;;;;;;5.53;3.60;;;;;;;16.89;48.81;100975.38;5093664;28;20166;-60
2023/03/01 03:54:00;;;;;;;6.37;4.20;;;;;;;16.86;48.61;100969.56;5110745;28;20181;-60
2023/03/01 03:56:26;;;;;;;5.83;3.83;;;;;;;16.79;49.21;100970.13;5093146;28;20206;-59
2023/03/01 03:58:54;;;;;;;6.20;3.17;;;;;;;16.72;48.87;100967.03;5118344;27;20169;-60
2023/03/01 04:01:20;;;;;;;4.53;3.20;;;;;;;16.75;48.90;100966.31;5112598;27;20186;-59
2023/03/01 04:03:46;;;;;;;6.23;3.80;;;;;;;16.70;49.04;100963.69;5111026;28;20458;-60
2023/03/01 04:06:12;;;;;;;4.23;2.90;;;;;;;16.69;49.22;100958.34;5103463;28;20201;-60
2023/03/01 04:08:38;;;;;;;4.10;3.00;;;;;;;16.70;49.22;100966.53;5111086;28;20855;-60
2023/03/01 04:11:25;;;;;;;5.00;3.10;;;;;;;16.70;49.25;100954.31;5111478;28;20407;-60
2023/03/01 04:13:50;;;;;;;5.63;3.30;;;;;;;16.65;49.24;100952.50;5104985;28;20193;-60
2023/03/01 04:16:16;;;;;;;4.30;3.30;;;;;;;16.66;49.24;100954.16;5114942;27;20485;-60
2023/03/01 04:18:41;;;;;;;3.93;2.60;;;;;;;16.69;49.20;100964.88;5098685;28;20981;-59
2023/03/01 04:21:07;;;;;;;4.60;3.20;;;;;;;16.84;48.94;100954.81;5113863;27;20189;-60
2023/03/01 04:23:32;;;;;;;5.20;3.23;;;;;;;16.76;48.99;100950.88;5110556;28;20190;-60
2023/03/01 04:25:58;;;;;;;5.17;3.43;;;;;;;16.77;48.86;100951.72;5111374;28;20186;-59
2023/03/01 04:28:33;;;;;;;4.13;2.87;;;;;;;16.80;48.99;100951.03;5110813;28;20227;-59
2023/03/01 04:31:12;;;;;;;4.60;3.30;;;;;;;16.83;49.00;100951.13;5110445;28;20189;-59
2023/03/01 04:33:38;;;;;;;4.70;3.30;;;;;;;16.80;48.91;100951.84;5093386;28;20400;-59
2023/03/01 04:36:05;;;;;;;5.63;2.93;;;;;;;16.80;49.00;100951.84;5109930;28;20466;-59
2023/03/01 04:38:30;;;;;;;5.63;3.33;;;;;;;16.80;48.99;100948.16;5110161;28;20189;-59
2023/03/01 04:40:55;;;;;;;4.80;3.50;;;;;;;16.78;48.95;100950.53;5110913;28;20419;-59
2023/03/01 04:43:21;;;;;;;5.47;3.23;;;;;;;16.78;48.95;100945.66;5109382;28;20169;-59
2023/03/01 04:45:46;;;;;;;4.00;3.10;;;;;;;16.78;48.84;100941.97;5100905;28;20626;-60
2023/03/01 04:48:12;;;;;;;4.77;3.27;;;;;;;16.77;49.08;100941.16;5090277;28;20622;-59
2023/03/01 04:50:37;;;;;;;4.53;3.23;;;;;;;16.85;48.73;100940.19;5104263;28;20181;-60
2023/03/01 04:53:03;;;;;;;5.37;3.23;;;;;;;16.83;48.95;100939.72;5110734;28;20170;-60
2023/03/01 04:55:28;;;;;;;5.13;3.67;;;;;;;16.92;48.46;100936.78;5109644;28;20310;-60
2023/03/01 04:57:54;;;;;;;3.93;2.77;;;;;;;16.84;48.77;100944.25;5111425;28;20199;-59
2023/03/01 05:00:19;;;;;;;4.40;2.97;;;;;;;16.84;48.88;100932.84;5122358;27;20194;-59
2023/03/01 05:02:57;;;;;;;4.17;3.00;;;;;;;16.83;48.78;100936.88;5130949;27;20207;-60
2023/03/01 05:05:26;;;;;;;4.50;2.90;;;;;;;16.81;48.69;100930.69;5110671;27;20405;-59
2023/03/01 05:07:53;;;;;;;5.07;3.00;;;;;;;16.77;48.93;100941.16;5093649;27;20591;-59
2023/03/01 05:10:19;;;;;;;4.43;3.37;;;;;;;16.71;49.06;100942.53;5101239;28;20436;-60
2023/03/01 05:12:44;;;;;;;5.00;3.30;;;;;;;16.68;49.11;100951.81;5110220;28;20426;-60
2023/03/01 05:15:10;;;;;;;4.97;3.53;;;;;;;16.68;49.33;100946.13;5109606;28;20212;-60
2023/03/01 05:17:35;;;;;;;4.40;2.97;;;;;;;16.67;49.39;100943.63;5124895;27;20181;-60
2023/03/01 05:20:02;;;;;;;4.50;2.73;;;;;;;16.66;49.45;100945.63;5121328;27;20177;-59
2023/03/01 05:22:27;;;;;;;4.60;3.23;;;;;;;16.67;49.44;100938.75;5109413;28;20194;-59
2023/03/01 05:24:53;;;;;;;4.13;2.57;;;;;;;16.73;49.30;100940.19;5110071;28;20400;-59
2023/03/01 05:27:21;;;;;;;6.00;3.63;;;;;;;16.74;49.14;100936.16;5109229;28;20538;-59
2023/03/01 05:29:47;;;;;;;5.07;2.90;;;;;;;16.80;48.88;100937.56;5107119;28;20427;-60
2023/03/01 05:32:15;;;;;;;6.17;3.00;;;;;;;16.75;49.02;100937.81;5109511;28;20427;-59
2023/03/01 05:34:40;;;;;;;4.90;3.50;;;;;;;16.74;48.62;100939.00;5091523;28;20619;-60
2023/03/01 05:37:07;;;;;;;4.17;2.80;;;;;;;16.74;48.80;100938.16;5109370;28;20572;-60
2023/03/01 05:39:32;;;;;;;3.90;2.73;;;;;;;16.76;49.15;100935.81;5110030;28;20184;-59
2023/03/01 05:41:59;;;;;;;5.60;2.90;;;;;;;16.78;48.95;100939.13;5108800;28;20470;-59
2023/03/01 05:44:25;;;;;;;4.30;2.97;;;;;;;16.79;48.91;100938.78;5109635;28;20537;-59
2023/03/01 05:46:50;;;;;;;5.40;3.20;;;;;;;16.79;48.96;100938.78;5109917;28;20412;-60
2023/03/01 05:49:16;;;;;;;4.70;3.20;;;;;;;16.79;49.13;100947.31;5109175;28;20189;-59
2023/03/01 05:51:42;;;;;;;3.40;2.40;;;;;;;16.72;49.20;100938.53;5109767;28;20513;-60
2023/03/01 05:54:08;;;;;;;3.80;2.67;;;;;;;16.72;49.23;100938.53;5090847;28;20264;-59
2023/03/01 05:56:34;;;;;;;4.33;3.10;;;;;;;16.74;49.19;100938.16;5109812;28;20508;-59
2023/03/01 05:59:01;;;;;;;4.10;3.10;;;;;;;16.84;48.95;100934.84;5109136;28;20503;-60
2023/03/01 06:01:26;;;;;;;4.23;2.70;;;;;;;16.84;48.95;100938.53;5107360;28;20453;-60
2023/03/01 06:03:52;;;;;;;4.30;2.97;;;;;;;16.90;48.58;100939.97;5127045;28;20442;-59
2023/03/01 06:06:17;;;;;;;4.03;2.50;;;;;;;16.84;48.79;100943.41;5110190;28;20625;-60
2023/03/01 06:08:43;;;;;;;3.87;2.83;;;;;;;16.83;49.13;100942.59;5108784;28;20193;-59
2023/03/01 06:11:08;;;;;;;4.30;2.60;;;;;;;16.80;48.93;100937.56;5112034;28;20515;-59
2023/03/01 06:13:34;;;;;;;4.50;3.20;;;;;;;16.74;48.92;100939.00;5112113;28;20177;-59
2023/03/01 06:15:59;;;;;;;4.60;3.20;;;;;;;16.76;49.24;100932.94;5112466;27;20205;-59
2023/03/01 06:18:24;;;;;;;3.60;2.60;;;;;;;16.71;49.13;100942.53;5132424;27;20161;-59
2023/03/01 06:20:54;;;;;;;4.07;2.87;;;;;;;16.64;49.41;100941.47;5116361;27;20185;-60
2023/03/01 06:23:19;;;;;;;5.07;3.07;;;;;;;16.64;49.17;100939.44;5117580;27;20221;-59
2023/03/01 06:25:44;;;;;;;4.90;2.83;;;;;;;16.65;49.57;100941.09;5112631;28;20490;-60
2023/03/01 06:28:10;;;;;;;4.67;3.23;;;;;;;16.62;49.47;100943.84;5112297;28;20234;-60
2023/03/01 06:30:35;;;;;;;4.30;2.60;;;;;;;16.63;49.27;100939.81;5112372;28;20189;-59
2023/03/01 06:33:02;;;;;;;3.93;2.90;;;;;;;16.69;49.36;100942.06;5112430;28;20165;-60
2023/03/01 06:35:31;;;;;;;3.53;2.70;;;;;;;16.81;48.94;100936.38;5112334;28;20652;-59
2023/03/01 06:37:57;;;;;;;6.07;3.17;;;;;;;16.72;49.03;100941.38;5113258;28;20444;-59
2023/03/01 06:40:23;;;;;;;4.37;3.07;;;;;;;16.69;49.20;100941.22;5113030;28;20510;-59
2023/03/01 06:42:49;;;;;;;4.10;2.53;;;;;;;16.77;48.81;100931.75;5112577;28;20422;-59
2023/03/01 06:45:14;;;;;;;4.30;2.93;;;;;;;16.78;49.13;100937.09;5111759;28;20192;-58
2023/03/01 06:47:40;;;;;;;4.23;2.80;;;;;;;16.77;48.80;100929.75;5113741;28;20756;-59
2023/03/01 06:50:06;;;;;;;4.50;3.07;;;;;;;16.75;48.94;100931.28;5111744;28;20267;-59
2023/03/01 06:52:31;;;;;;;4.97;3.17;;;;;;;16.76;48.60;100925.22;5112633;28;20761;-60
2023/03/01 06:54:56;;;;;;;3.80;2.97;;;;;;;16.78;49.06;100934.25;5112357;28;20219;-59
2023/03/01 06:57:22;;;;;;;4.60;2.90;;;;;;;16.76;48.97;100925.22;5112568;27;20196;-59
2023/03/01 06:59:47;;;;;;;4.13;2.77;;;;;;;16.70;49.24;100925.81;5113784;27;20593;-60
2023/03/01 07:02:13;;;;;;;4.60;2.70;;;;;;;16.69;49.02;100919.28;5111257;28;20658;-59
2023/03/01 07:04:39;;;;;;;3.63;2.60;;;;;;;16.78;48.84;100922.00;5088229;28;20194;-59
2023/03/01 07:07:04;;;;;;;5.00;3.20;;;;;;;16.76;49.16;100916.66;5091781;28;20226;-59
2023/03/01 07:09:30;;;;;;;3.97;2.57;;;;;;;16.81;48.89;100918.47;5093824;28;20560;-59
2023/03/01 07:11:56;;;;;;;4.83;2.80;;;;;;;16.81;48.69;100910.72;5111120;28;20196;-60
2023/03/01 07:14:24;;;;;;;5.40;2.53;;;;;;;16.81;49.03;100916.44;5111062;28;20166;-60
2023/03/01 07:16:49;;;;;;;4.67;3.10;;;;;;;16.81;48.87;100910.72;5119693;28;20643;-59
2023/03/01 07:19:15;;;;;;;4.60;3.17;;;;;;;16.78;48.84;100914.31;5128452;28;20431;-59
2023/03/01 07:21:40;;;;;;;4.30;3.13;;;;;;;16.80;49.13;100897.66;5109423;28;20188;-59
2023/03/01 07:24:06;;;;;;;4.90;3.47;;;;;;;16.79;48.70;100904.56;5110305;28;20177;-60
2023/03/01 07:26:32;;;;;;;3.60;2.33;;;;;;;16.69;49.21;100907.03;5109904;28;20185;-60
2023/03/01 07:29:01;;;;;;;4.83;2.77;;;;;;;16.70;49.12;100900.97;5109732;28;20438;-60
2023/03/01 07:31:29;;;;;;;4.30;3.50;;;;;;;16.69;49.13;100895.63;5108449;28;20276;-60
2023/03/01 07:33:55;;;;;;;3.33;2.73;;;;;;;16.65;49.18;100895.50;5108774;28;20858;-60
2023/03/01 07:36:20;;;;;;;3.63;2.63;;;;;;;16.59;49.53;100896.91;5108607;28;20470;-60
2023/03/01 07:38:46;;;;;;;4.10;3.00;;;;;;;16.62;49.43;100906.78;5108951;28;20265;-60
2023/03/01 07:41:12;;;;;;;3.87;3.00;;;;;;;16.58;49.33;100892.41;5089776;28;20648;-60
2023/03/01 07:43:37;;;;;;;3.43;2.53;;;;;;;16.60;49.69;100898.56;5110687;28;20234;-60
2023/03/01 07:46:03;;;;;;;4.60;3.03;;;;;;;16.59;49.38;100899.78;5111062;28;20189;-60
2023/03/01 07:48:29;;;;;;;3.50;2.60;;;;;;;16.58;49.32;100905.81;5110004;28;20189;-60
2023/03/01 07:50:54;;;;;;;4.23;3.00;;;;;;;16.54;49.06;100894.28;5109850;28;20246;-59
2023/03/01 07:53:20;;;;;;;15.73;10.50;;;;;;;15.81;45.58;100903.72;5096890;28;20182;-59
2023/03/01 07:55:45;;;;;;;17.40;13.20;;;;;;;15.58;46.91;100895.88;5101752;28;20525;-60
2023/03/01 07:58:11;;;;;;;24.30;15.60;;;;;;;16.20;48.15;100903.19;5107629;28;20615;-60
2023/03/01 08:00:36;;;;;;;23.93;15.33;;;;;;;16.56;46.07;100906.16;5085093;28;20193;-60
2023/03/01 08:03:01;;;;;;;27.83;14.37;;;;;;;16.72;45.11;100898.63;5105175;28;20192;-60
2023/03/01 08:05:27;;;;;;;23.57;14.83;;;;;;;16.88;46.01;100888.16;5104696;28;20205;-60
2023/03/01 08:07:53;;;;;;;35.10;13.03;;;;;;;16.81;46.07;100887.91;5062540;28;1142153;-60
2023/03/01 08:10:20;;;;;;;24.60;12.57;;;;;;;16.78;46.11;100888.63;5088384;28;20490;-61
2023/03/01 08:12:45;;;;;;;24.23;11.67;;;;;;;16.70;46.51;100891.59;5097500;28;20642;-61
2023/03/01 08:15:11;;;;;;;35.20;12.57;;;;;;;16.65;47.21;100895.50;5102612;28;20474;-61
2023/03/01 08:17:36;;;;;;;17.63;10.60;;;;;;;16.64;47.38;100876.75;5110650;27;20170;-61
2023/03/01 08:20:04;;;;;;;14.63;10.17;;;;;;;16.73;47.09;100885.19;5090514;28;20177;-61
2023/03/01 08:22:29;;;;;;;21.73;11.23;;;;;;;16.76;46.46;100881.63;5101853;27;20185;-61
2023/03/01 08:24:55;;;;;;;26.37;11.83;;;;;;;16.67;46.60;100892.31;5109644;28;20415;-60
2023/03/01 08:27:21;;;;;;;18.47;9.97;;;;;;;16.66;46.72;100885.75;5108357;28;20193;-61
2023/03/01 08:29:46;;;;;;;17.23;8.87;;;;;;;16.68;46.86;100882.56;5091381;28;20443;-60
2023/03/01 08:32:12;;;;;;;20.37;10.43;;;;;;;16.92;45.71;100871.19;5097443;28;20581;-60
2023/03/01 08:34:37;;;;;;;18.77;8.53;;;;;;;16.91;46.43;100864.63;5106258;28;20949;-61
2023/03/01 08:37:03;;;;;;;12.83;8.30;;;;;;;16.81;46.86;100873.66;5110992;28;20597;-61
2023/03/01 08:39:28;;;;;;;16.87;8.50;;;;;;;16.75;47.26;100860.81;5111132;28;20597;-61
2023/03/01 08:41:54;;;;;;;15.30;9.03;;;;;;;16.73;47.42;100866.06;5110009;28;20185;-60
2023/03/01 08:44:20;;;;;;;17.87;8.37;;;;;;;16.81;47.24;100870.81;5110525;28;20201;-60
2023/03/01 08:46:46;;;;;;;15.93;8.33;;;;;;;16.92;47.14;100877.72;5072740;28;20646;-60
2023/03/01 08:49:13;;;;;;;15.90;7.77;;;;;;;17.22;47.72;100870.56;5101845;28;20520;-61
2023/03/01 08:51:39;;;;;;;17.43;7.63;;;;;;;17.66;46.77;100877.28;5102742;27;20272;-61
2023/03/01 08:54:05;;;;;;;21.63;9.53;;;;;;;17.88;46.02;100871.88;5110789;27;20427;-61
2023/03/01 08:56:31;;;;;;;17.20;7.70;;;;;;;18.09;45.75;100855.34;5089168;28;20220;-61
2023/03/01 08:58:56;;;;;;;16.60;7.00;;;;;;;18.04;45.31;100857.63;5104642;28;20898;-61
2023/03/01 09:01:22;;;;;;;19.50;6.20;;;;;;;18.18;44.52;100861.75;5099342;28;20189;-61
2023/03/01 09:03:47;;;;;;;14.53;6.37;;;;;;;18.24;44.07;100848.84;5108005;28;20284;-60
2023/03/01 09:06:13;;;;;;;15.83;7.20;;;;;;;18.12;43.16;100851.75;5100124;28;20519;-60
2023/03/01 09:08:41;;;;;;;22.63;8.17;;;;;;;18.18;43.16;100840.88;5112246;27;20186;-60
2023/03/01 09:11:07;;;;;;;14.70;7.87;;;;;;;18.18;43.38;100841.72;5104172;28;20440;-60
2023/03/01 09:13:33;;;;;;;15.23;7.83;;;;;;;18.15;43.89;100842.44;5104671;28;20487;-61
2023/03/01 09:15:59;;;;;;;17.17;7.20;;;;;;;18.05;44.03;100837.25;5107262;27;21250;-61
2023/03/01 09:18:24;;;;;;;14.87;7.67;;;;;;;18.04;44.38;100829.06;5114005;27;20173;-61
2023/03/01 09:20:50;;;;;;;24.87;7.33;;;;;;;18.17;43.82;100824.94;5108153;28;20720;-61
2023/03/01 09:23:15;;;;;;;17.77;6.40;;;;;;;18.14;43.92;100828.53;5106689;28;20174;-60
2023/03/01 09:25:40;;;;;;;18.40;7.00;;;;;;;17.79;44.51;100825.50;5102721;28;20169;-60
2023/03/01 09:28:06;;;;;;;15.13;6.70;;;;;;;17.56;44.96;100815.81;5102159;28;20166;-60
2023/03/01 09:30:31;;;;;;;25.10;6.13;;;;;;;17.46;45.67;100819.16;5108821;28;20181;-60
2023/03/01 09:32:57;;;;;;;11.73;5.60;;;;;;;17.45;46.42;100820.38;5107056;28;20181;-60
2023/03/01 09:35:23;;;;;;;16.50;6.70;;;;;;;17.46;46.84;100815.50;5109241;28;20228;-60
2023/03/01 09:37:49;;;;;;;19.63;6.27;;;;;;;17.47;49.22;100815.16;5108128;28;20264;-60
2023/03/01 09:40:17;;;;;;;22.40;5.73;;;;;;;17.50;48.84;100814.41;5103684;28;20586;-60
2023/03/01 09:42:49;;;;;;;18.73;7.57;;;;;;;17.33;48.16;100808.13;5088002;28;20932;-60
2023/03/01 09:45:22;;;;;;;19.33;8.03;;;;;;;17.28;47.05;100800.66;5088582;28;20465;-61
2023/03/01 09:47:48;;;;;;;16.90;6.90;;;;;;;17.26;47.38;100803.03;5086274;28;20404;-60
2023/03/01 09:50:18;;;;;;;16.30;7.00;;;;;;;17.11;46.88;100806.63;5106174;28;21005;-60
2023/03/01 09:52:50;;;;;;;24.63;7.60;;;;;;;17.20;47.47;100803.66;5075250;28;20189;-60
2023/03/01 09:55:20;;;;;;;13.17;6.17;;;;;;;17.34;46.80;100793.50;5106977;28;21084;-60
2023/03/01 09:57:45;;;;;;;14.47;6.80;;;;;;;17.36;47.25;100796.81;5088718;28;20440;-59
2023/03/01 10:00:23;;;;;;;14.37;6.50;;;;;;;17.29;47.09;100807.16;5094788;28;20839;-59
2023/03/01 10:02:52;;;;;;;19.23;6.90;;;;;;;17.13;47.09;100792.84;5094415;28;20185;-59
2023/03/01 10:05:39;;;;;;;14.43;7.67;;;;;;;17.07;46.65;100797.13;5098784;28;20455;-59
2023/03/01 10:08:10;;;;;;;15.97;7.80;;;;;;;17.02;46.39;100788.81;5107191;28;20462;-60
2023/03/01 10:10:40;;;;;;;19.47;7.10;;;;;;;16.99;46.47;100778.13;5102572;28;20483;-59
2023/03/01 10:13:45;;;;;;;13.97;6.70;;;;;;;16.93;46.62;100773.84;5109831;28;20493;-60
2023/03/01 10:16:32;;;;;;;17.90;7.10;;;;;;;16.93;47.87;100782.41;5106788;28;20465;-59
2023/03/01 10:19:02;;;;;;;23.23;8.27;;;;;;;16.98;48.60;100787.03;5098468;28;20430;-60
2023/03/01 10:21:31;;;;;;;22.63;8.17;;;;;;;16.95;49.17;100768.63;5097211;28;20438;-60
2023/03/01 10:23:59;;;;;;;27.07;7.90;;;;;;;16.97;49.57;100774.81;5103242;28;20446;-60
2023/03/01 10:26:54;;;;;;;15.20;6.63;;;;;;;16.94;49.44;100772.66;5090485;28;20856;-60
2023/03/01 10:29:24;;;;;;;18.57;7.10;;;;;;;17.01;49.47;100770.03;5079392;28;20558;-60
2023/03/01 10:31:50;;;;;;;17.43;7.43;;;;;;;17.11;48.97;100777.28;5109069;28;20481;-60
2023/03/01 10:34:22;;;;;;;24.40;7.53;;;;;;;17.06;49.34;100775.47;5105753;28;20411;-60
2023/03/01 10:36:50;;;;;;;16.03;6.20;;;;;;;17.07;49.47;100764.91;5106852;28;20426;-59
2023/03/01 10:39:21;;;;;;;16.73;5.80;;;;;;;17.09;49.44;100759.66;5073991;28;20400;-59
2023/03/01 10:42:29;;;;;;;25.77;6.30;;;;;;;17.12;49.17;100751.25;5108483;28;20451;-59
2023/03/01 10:44:55;;;;;;;24.80;6.30;;;;;;;17.11;49.17;100755.25;5091228;28;20415;-60
2023/03/01 10:47:25;;;;;;;21.23;6.63;;;;;;;17.07;49.32;100748.66;5092464;28;20439;-59
2023/03/01 10:49:57;;;;;;;24.30;6.63;;;;;;;17.10;49.26;100758.50;5108229;28;20193;-59
2023/03/01 10:52:37;;;;;;;20.10;5.93;;;;;;;17.09;49.34;100751.09;5107324;28;20443;-59
2023/03/01 10:55:28;;;;;;;14.37;5.70;;;;;;;17.05;49.50;100744.50;5089185;28;20965;-60
2023/03/01 10:58:19;;;;;;;19.50;6.07;;;;;;;17.07;49.58;100736.38;5110535;28;20454;-60
2023/03/01 11:00:52;;;;;;;17.43;6.30;;;;;;;17.04;49.58;100740.78;5112672;28;20407;-60
2023/03/01 11:03:27;;;;;;;15.87;5.60;;;;;;;17.06;49.62;100734.72;5111977;28;20930;-60
2023/03/01 11:05:52;;;;;;;22.60;6.10;;;;;;;17.20;48.76;100724.56;5078429;28;20502;-60
2023/03/01 11:08:36;;;;;;;13.33;6.97;;;;;;;17.17;49.07;100733.88;5104266;27;20542;-60
2023/03/01 11:11:25;;;;;;;11.60;5.80;;;;;;;17.16;49.42;100723.63;5112710;28;20165;-60
2023/03/01 11:14:06;;;;;;;10.23;5.40;;;;;;;17.15;49.26;100726.88;5111296;28;21224;-60
2023/03/01 11:16:35;;;;;;;17.20;5.93;;;;;;;17.14;49.70;100719.47;5118551;27;20522;-60
2023/03/01 11:19:15;;;;;;;15.60;5.20;;;;;;;17.13;49.62;100721.53;5132009;27;20417;-60
2023/03/01 11:22:32;;;;;;;14.30;5.80;;;;;;;17.15;49.78;100718.31;5110768;28;20446;-60
2023/03/01 11:24:58;;;;;;;12.13;5.43;;;;;;;17.16;49.64;100705.69;5065397;28;20510;-61